sensor_id;sensor_type;location;lat;lon;timestamp;P1;durP1;ratioP1;P2;durP2;ratioP2
21777;SDS011;11050;52.222;20.916;2023-04-25T00:01:31;22.17;;;17.10;;
21777;SDS011;11050;52.222;20.916;2023-04-25T00:04:01;26.67;;;17.50;;
21777;SDS011;11050;52.222;20.916;2023-04-25T00:06:27;22.15;;;17.40;;
21777;SDS011;11050;52.222;20.916;2023-04-25T00:08:55;23.55;;;17.88;;
21777;SDS011;11050;52.222;20.916;2023-04-25T00:11:21;21.38;;;17.75;;
21777;SDS011;11050;52.222;20.916;2023-04-25T00:13:48;20.60;;;16.83;;
21777;SDS011;11050;52.222;20.916;2023-04-25T00:16:15;22.42;;;16.42;;
21777;SDS011;11050;52.222;20.916;2023-04-25T00:18:42;24.17;;;16.10;;
21777;SDS011;11050;52.222;20.916;2023-04-25T00:21:08;28.10;;;18.90;;
21777;SDS011;11050;52.222;20.916;2023-04-25T00:23:34;26.15;;;17.02;;
21777;SDS011;11050;52.222;20.916;2023-04-25T00:26:01;22.42;;;16.10;;
21777;SDS011;11050;52.222;20.916;2023-04-25T00:28:27;22.30;;;16.83;;
21777;SDS011;11050;52.222;20.916;2023-04-25T00:30:53;21.15;;;17.15;;
21777;SDS011;11050;52.222;20.916;2023-04-25T00:33:19;21.92;;;17.30;;
21777;SDS011;11050;52.222;20.916;2023-04-25T00:35:45;24.77;;;18.23;;
21777;SDS011;11050;52.222;20.916;2023-04-25T00:38:11;23.00;;;17.90;;
21777;SDS011;11050;52.222;20.916;2023-04-25T00:40:36;22.67;;;17.55;;
21777;SDS011;11050;52.222;20.916;2023-04-25T00:43:02;21.92;;;18.23;;
21777;SDS011;11050;52.222;20.916;2023-04-25T00:45:29;22.25;;;18.13;;
21777;SDS011;11050;52.222;20.916;2023-04-25T00:47:55;25.67;;;17.92;;
21777;SDS011;11050;52.222;20.916;2023-04-25T00:50:22;22.38;;;17.35;;
21777;SDS011;11050;52.222;20.916;2023-04-25T00:52:49;27.55;;;18.67;;
21777;SDS011;11050;52.222;20.916;2023-04-25T00:55:14;24.95;;;19.17;;
21777;SDS011;11050;52.222;20.916;2023-04-25T00:57:41;27.88;;;18.42;;
21777;SDS011;11050;52.222;20.916;2023-04-25T01:00:08;24.80;;;18.38;;
21777;SDS011;11050;52.222;20.916;2023-04-25T01:02:36;24.27;;;18.50;;
21777;SDS011;11050;52.222;20.916;2023-04-25T01:05:03;26.45;;;17.65;;
21777;SDS011;11050;52.222;20.916;2023-04-25T01:07:29;22.38;;;18.05;;
21777;SDS011;11050;52.222;20.916;2023-04-25T01:09:55;22.25;;;18.15;;
21777;SDS011;11050;52.222;20.916;2023-04-25T01:12:21;24.08;;;17.92;;
21777;SDS011;11050;52.222;20.916;2023-04-25T01:14:48;21.85;;;17.15;;
21777;SDS011;11050;52.222;20.916;2023-04-25T01:17:14;21.83;;;17.90;;
21777;SDS011;11050;52.222;20.916;2023-04-25T01:19:41;23.30;;;16.77;;
21777;SDS011;11050;52.222;20.916;2023-04-25T01:22:07;25.92;;;17.35;;
21777;SDS011;11050;52.222;20.916;2023-04-25T01:24:35;20.65;;;16.95;;
21777;SDS011;11050;52.222;20.916;2023-04-25T01:27:02;23.92;;;18.48;;
21777;SDS011;11050;52.222;20.916;2023-04-25T01:29:28;23.52;;;16.48;;
21777;SDS011;11050;52.222;20.916;2023-04-25T01:31:55;23.65;;;17.90;;
21777;SDS011;11050;52.222;20.916;2023-04-25T01:34:23;23.92;;;18.42;;
21777;SDS011;11050;52.222;20.916;2023-04-25T01:36:50;27.02;;;18.67;;
21777;SDS011;11050;52.222;20.916;2023-04-25T01:39:17;24.08;;;18.17;;
21777;SDS011;11050;52.222;20.916;2023-04-25T01:41:43;25.45;;;18.23;;
21777;SDS011;11050;52.222;20.916;2023-04-25T01:44:10;24.20;;;17.20;;
21777;SDS011;11050;52.222;20.916;2023-04-25T01:46:36;26.13;;;18.10;;
21777;SDS011;11050;52.222;20.916;2023-04-25T01:49:02;23.15;;;17.77;;
21777;SDS011;11050;52.222;20.916;2023-04-25T01:51:28;22.75;;;18.10;;
21777;SDS011;11050;52.222;20.916;2023-04-25T01:53:55;23.85;;;17.33;;
21777;SDS011;11050;52.222;20.916;2023-04-25T01:56:22;22.55;;;17.23;;
21777;SDS011;11050;52.222;20.916;2023-04-25T01:58:48;22.07;;;17.17;;
21777;SDS011;11050;52.222;20.916;2023-04-25T02:01:14;26.02;;;17.42;;
21777;SDS011;11050;52.222;20.916;2023-04-25T02:03:40;25.58;;;18.55;;
21777;SDS011;11050;52.222;20.916;2023-04-25T02:06:06;25.25;;;18.15;;
21777;SDS011;11050;52.222;20.916;2023-04-25T02:08:32;23.95;;;17.48;;
21777;SDS011;11050;52.222;20.916;2023-04-25T02:10:58;22.13;;;16.52;;
21777;SDS011;11050;52.222;20.916;2023-04-25T02:13:24;21.85;;;16.67;;
21777;SDS011;11050;52.222;20.916;2023-04-25T02:15:49;22.77;;;16.80;;
21777;SDS011;11050;52.222;20.916;2023-04-25T02:18:15;21.17;;;16.02;;
21777;SDS011;11050;52.222;20.916;2023-04-25T02:20:41;18.63;;;14.88;;
21777;SDS011;11050;52.222;20.916;2023-04-25T02:23:08;21.00;;;15.02;;
21777;SDS011;11050;52.222;20.916;2023-04-25T02:25:34;19.50;;;14.65;;
21777;SDS011;11050;52.222;20.916;2023-04-25T02:28:00;18.52;;;14.70;;
21777;SDS011;11050;52.222;20.916;2023-04-25T02:30:25;18.48;;;13.93;;
21777;SDS011;11050;52.222;20.916;2023-04-25T02:32:51;20.23;;;14.77;;
21777;SDS011;11050;52.222;20.916;2023-04-25T02:35:17;17.35;;;12.43;;
21777;SDS011;11050;52.222;20.916;2023-04-25T02:37:43;16.55;;;12.38;;
21777;SDS011;11050;52.222;20.916;2023-04-25T02:40:09;17.65;;;14.23;;
21777;SDS011;11050;52.222;20.916;2023-04-25T02:42:35;17.85;;;13.30;;
21777;SDS011;11050;52.222;20.916;2023-04-25T02:45:01;18.05;;;13.82;;
21777;SDS011;11050;52.222;20.916;2023-04-25T02:47:28;17.70;;;12.88;;
21777;SDS011;11050;52.222;20.916;2023-04-25T02:49:54;18.25;;;13.23;;
21777;SDS011;11050;52.222;20.916;2023-04-25T02:52:20;15.95;;;11.55;;
21777;SDS011;11050;52.222;20.916;2023-04-25T02:54:46;19.60;;;13.13;;
21777;SDS011;11050;52.222;20.916;2023-04-25T02:57:12;17.45;;;12.68;;
21777;SDS011;11050;52.222;20.916;2023-04-25T02:59:38;20.85;;;13.82;;
21777;SDS011;11050;52.222;20.916;2023-04-25T03:02:03;20.08;;;13.73;;
21777;SDS011;11050;52.222;20.916;2023-04-25T03:04:29;19.20;;;12.85;;
21777;SDS011;11050;52.222;20.916;2023-04-25T03:06:55;21.00;;;13.90;;
21777;SDS011;11050;52.222;20.916;2023-04-25T03:09:21;20.07;;;13.47;;
21777;SDS011;11050;52.222;20.916;2023-04-25T03:11:46;19.63;;;13.77;;
21777;SDS011;11050;52.222;20.916;2023-04-25T03:14:12;20.15;;;13.15;;
21777;SDS011;11050;52.222;20.916;2023-04-25T03:16:38;19.17;;;13.35;;
21777;SDS011;11050;52.222;20.916;2023-04-25T03:19:05;19.33;;;13.43;;
21777;SDS011;11050;52.222;20.916;2023-04-25T03:21:32;18.05;;;12.93;;
21777;SDS011;11050;52.222;20.916;2023-04-25T03:24:00;18.25;;;13.02;;
21777;SDS011;11050;52.222;20.916;2023-04-25T03:26:28;17.92;;;13.02;;
21777;SDS011;11050;52.222;20.916;2023-04-25T03:28:54;18.15;;;13.55;;
21777;SDS011;11050;52.222;20.916;2023-04-25T03:31:20;17.08;;;12.57;;
21777;SDS011;11050;52.222;20.916;2023-04-25T03:33:47;18.02;;;12.38;;
21777;SDS011;11050;52.222;20.916;2023-04-25T03:36:13;18.10;;;12.45;;
21777;SDS011;11050;52.222;20.916;2023-04-25T03:38:38;17.13;;;12.80;;
21777;SDS011;11050;52.222;20.916;2023-04-25T03:41:06;17.02;;;12.45;;
21777;SDS011;11050;52.222;20.916;2023-04-25T03:43:32;18.77;;;12.48;;
21777;SDS011;11050;52.222;20.916;2023-04-25T03:45:58;17.75;;;12.55;;
21777;SDS011;11050;52.222;20.916;2023-04-25T03:48:25;16.80;;;12.15;;
21777;SDS011;11050;52.222;20.916;2023-04-25T03:50:51;17.17;;;12.00;;
21777;SDS011;11050;52.222;20.916;2023-04-25T03:53:18;16.30;;;12.18;;
21777;SDS011;11050;52.222;20.916;2023-04-25T03:55:44;17.67;;;12.73;;
21777;SDS011;11050;52.222;20.916;2023-04-25T03:58:10;15.02;;;10.82;;
21777;SDS011;11050;52.222;20.916;2023-04-25T04:00:36;13.70;;;10.80;;
21777;SDS011;11050;52.222;20.916;2023-04-25T04:03:01;12.75;;;9.85;;
21777;SDS011;11050;52.222;20.916;2023-04-25T04:05:27;9.68;;;7.68;;
21777;SDS011;11050;52.222;20.916;2023-04-25T04:07:54;15.25;;;9.95;;
21777;SDS011;11050;52.222;20.916;2023-04-25T04:10:20;13.45;;;8.95;;
21777;SDS011;11050;52.222;20.916;2023-04-25T04:12:46;12.38;;;9.98;;
21777;SDS011;11050;52.222;20.916;2023-04-25T04:15:12;12.57;;;8.70;;
21777;SDS011;11050;52.222;20.916;2023-04-25T04:17:38;11.10;;;8.77;;
21777;SDS011;11050;52.222;20.916;2023-04-25T04:20:04;12.52;;;9.10;;
21777;SDS011;11050;52.222;20.916;2023-04-25T04:22:31;12.43;;;8.80;;
21777;SDS011;11050;52.222;20.916;2023-04-25T04:24:57;11.30;;;9.10;;
21777;SDS011;11050;52.222;20.916;2023-04-25T04:27:23;12.23;;;9.05;;
21777;SDS011;11050;52.222;20.916;2023-04-25T04:29:49;10.85;;;8.77;;
21777;SDS011;11050;52.222;20.916;2023-04-25T04:32:17;11.27;;;9.30;;
21777;SDS011;11050;52.222;20.916;2023-04-25T04:34:43;12.20;;;9.35;;
21777;SDS011;11050;52.222;20.916;2023-04-25T04:37:09;13.25;;;9.57;;
21777;SDS011;11050;52.222;20.916;2023-04-25T04:39:35;13.07;;;9.80;;
21777;SDS011;11050;52.222;20.916;2023-04-25T04:42:02;11.45;;;8.93;;
21777;SDS011;11050;52.222;20.916;2023-04-25T04:44:29;14.27;;;10.30;;
21777;SDS011;11050;52.222;20.916;2023-04-25T04:46:58;10.68;;;8.63;;
21777;SDS011;11050;52.222;20.916;2023-04-25T04:49:24;12.95;;;9.82;;
21777;SDS011;11050;52.222;20.916;2023-04-25T04:51:50;14.73;;;10.48;;
21777;SDS011;11050;52.222;20.916;2023-04-25T04:54:16;17.33;;;12.07;;
21777;SDS011;11050;52.222;20.916;2023-04-25T04:56:41;14.67;;;12.03;;
21777;SDS011;11050;52.222;20.916;2023-04-25T04:59:08;16.38;;;11.98;;
21777;SDS011;11050;52.222;20.916;2023-04-25T05:01:34;16.30;;;12.07;;
21777;SDS011;11050;52.222;20.916;2023-04-25T05:04:00;16.98;;;11.70;;
21777;SDS011;11050;52.222;20.916;2023-04-25T05:06:27;16.52;;;13.10;;
21777;SDS011;11050;52.222;20.916;2023-04-25T05:08:54;14.90;;;12.33;;
21777;SDS011;11050;52.222;20.916;2023-04-25T05:11:21;18.83;;;12.50;;
21777;SDS011;11050;52.222;20.916;2023-04-25T05:13:51;17.97;;;12.70;;
21777;SDS011;11050;52.222;20.916;2023-04-25T05:16:18;16.45;;;12.25;;
21777;SDS011;11050;52.222;20.916;2023-04-25T05:18:45;15.70;;;11.47;;
21777;SDS011;11050;52.222;20.916;2023-04-25T05:21:12;18.90;;;14.00;;
21777;SDS011;11050;52.222;20.916;2023-04-25T05:23:37;15.80;;;12.90;;
21777;SDS011;11050;52.222;20.916;2023-04-25T05:26:03;17.20;;;12.80;;
21777;SDS011;11050;52.222;20.916;2023-04-25T05:28:30;15.00;;;13.30;;
21777;SDS011;11050;52.222;20.916;2023-04-25T05:30:56;13.67;;;10.50;;
21777;SDS011;11050;52.222;20.916;2023-04-25T05:33:22;17.80;;;12.47;;
21777;SDS011;11050;52.222;20.916;2023-04-25T05:35:49;15.27;;;11.63;;
21777;SDS011;11050;52.222;20.916;2023-04-25T05:38:15;18.20;;;12.30;;
21777;SDS011;11050;52.222;20.916;2023-04-25T05:40:41;16.80;;;13.07;;
21777;SDS011;11050;52.222;20.916;2023-04-25T05:43:07;15.50;;;11.80;;
21777;SDS011;11050;52.222;20.916;2023-04-25T05:45:33;17.63;;;13.33;;
21777;SDS011;11050;52.222;20.916;2023-04-25T05:47:58;14.77;;;11.43;;
21777;SDS011;11050;52.222;20.916;2023-04-25T05:50:24;17.70;;;12.77;;
21777;SDS011;11050;52.222;20.916;2023-04-25T05:52:50;15.13;;;11.63;;
21777;SDS011;11050;52.222;20.916;2023-04-25T05:55:16;17.00;;;12.07;;
21777;SDS011;11050;52.222;20.916;2023-04-25T05:57:42;17.00;;;13.10;;
21777;SDS011;11050;52.222;20.916;2023-04-25T06:00:10;15.40;;;11.87;;
21777;SDS011;11050;52.222;20.916;2023-04-25T06:02:38;15.13;;;12.20;;
21777;SDS011;11050;52.222;20.916;2023-04-25T06:05:04;14.97;;;12.63;;
21777;SDS011;11050;52.222;20.916;2023-04-25T06:07:30;16.73;;;11.80;;
21777;SDS011;11050;52.222;20.916;2023-04-25T06:09:56;15.43;;;12.60;;
21777;SDS011;11050;52.222;20.916;2023-04-25T06:12:22;14.70;;;11.47;;
21777;SDS011;11050;52.222;20.916;2023-04-25T06:14:47;15.67;;;12.47;;
21777;SDS011;11050;52.222;20.916;2023-04-25T06:17:13;15.30;;;12.53;;
21777;SDS011;11050;52.222;20.916;2023-04-25T06:19:39;15.97;;;13.33;;
21777;SDS011;11050;52.222;20.916;2023-04-25T06:22:05;18.15;;;13.05;;
21777;SDS011;11050;52.222;20.916;2023-04-25T06:24:32;13.73;;;10.60;;
21777;SDS011;11050;52.222;20.916;2023-04-25T06:26:58;13.63;;;10.77;;
21777;SDS011;11050;52.222;20.916;2023-04-25T06:29:24;18.60;;;9.88;;
21777;SDS011;11050;52.222;20.916;2023-04-25T06:31:50;10.70;;;8.47;;
21777;SDS011;11050;52.222;20.916;2023-04-25T06:34:16;14.40;;;10.03;;
21777;SDS011;11050;52.222;20.916;2023-04-25T06:36:42;12.07;;;9.43;;
21777;SDS011;11050;52.222;20.916;2023-04-25T06:39:09;12.57;;;9.40;;
21777;SDS011;11050;52.222;20.916;2023-04-25T06:41:35;11.53;;;9.43;;
21777;SDS011;11050;52.222;20.916;2023-04-25T06:44:01;12.63;;;10.30;;
21777;SDS011;11050;52.222;20.916;2023-04-25T06:46:27;18.53;;;11.07;;
21777;SDS011;11050;52.222;20.916;2023-04-25T06:48:52;17.30;;;10.70;;
21777;SDS011;11050;52.222;20.916;2023-04-25T06:51:18;14.17;;;10.93;;
21777;SDS011;11050;52.222;20.916;2023-04-25T06:53:44;14.37;;;11.40;;
21777;SDS011;11050;52.222;20.916;2023-04-25T06:56:10;15.10;;;10.90;;
21777;SDS011;11050;52.222;20.916;2023-04-25T06:58:35;13.20;;;10.57;;
21777;SDS011;11050;52.222;20.916;2023-04-25T07:01:01;15.53;;;12.03;;
21777;SDS011;11050;52.222;20.916;2023-04-25T07:03:27;13.83;;;10.73;;
21777;SDS011;11050;52.222;20.916;2023-04-25T07:05:53;14.30;;;10.43;;
21777;SDS011;11050;52.222;20.916;2023-04-25T07:08:20;12.27;;;9.90;;
21777;SDS011;11050;52.222;20.916;2023-04-25T07:10:46;11.70;;;10.10;;
21777;SDS011;11050;52.222;20.916;2023-04-25T07:13:12;14.30;;;10.20;;
21777;SDS011;11050;52.222;20.916;2023-04-25T07:15:37;14.83;;;11.03;;
21777;SDS011;11050;52.222;20.916;2023-04-25T07:18:03;15.47;;;11.03;;
21777;SDS011;11050;52.222;20.916;2023-04-25T07:20:29;13.17;;;10.90;;
21777;SDS011;11050;52.222;20.916;2023-04-25T07:22:56;12.60;;;10.52;;
21777;SDS011;11050;52.222;20.916;2023-04-25T07:25:22;13.37;;;11.63;;
21777;SDS011;11050;52.222;20.916;2023-04-25T07:27:48;15.33;;;11.20;;
21777;SDS011;11050;52.222;20.916;2023-04-25T07:30:14;13.47;;;9.57;;
21777;SDS011;11050;52.222;20.916;2023-04-25T07:32:40;14.27;;;9.90;;
21777;SDS011;11050;52.222;20.916;2023-04-25T07:35:06;11.80;;;10.27;;
21777;SDS011;11050;52.222;20.916;2023-04-25T07:37:33;13.53;;;10.17;;
21777;SDS011;11050;52.222;20.916;2023-04-25T07:40:00;12.07;;;8.97;;
21777;SDS011;11050;52.222;20.916;2023-04-25T07:42:30;15.10;;;9.30;;
21777;SDS011;11050;52.222;20.916;2023-04-25T07:44:56;14.57;;;9.23;;
21777;SDS011;11050;52.222;20.916;2023-04-25T07:47:22;12.63;;;9.13;;
21777;SDS011;11050;52.222;20.916;2023-04-25T07:49:48;11.15;;;8.98;;
21777;SDS011;11050;52.222;20.916;2023-04-25T07:52:13;12.27;;;8.63;;
21777;SDS011;11050;52.222;20.916;2023-04-25T07:54:39;9.30;;;8.30;;
21777;SDS011;11050;52.222;20.916;2023-04-25T07:57:05;8.80;;;6.60;;
21777;SDS011;11050;52.222;20.916;2023-04-25T07:59:39;9.38;;;7.71;;
21777;SDS011;11050;52.222;20.916;2023-04-25T08:02:05;9.00;;;6.40;;
21777;SDS011;11050;52.222;20.916;2023-04-25T08:04:30;7.93;;;6.57;;
21777;SDS011;11050;52.222;20.916;2023-04-25T08:06:56;8.37;;;6.60;;
21777;SDS011;11050;52.222;20.916;2023-04-25T08:09:22;8.67;;;7.10;;
21777;SDS011;11050;52.222;20.916;2023-04-25T08:11:48;8.87;;;6.80;;
21777;SDS011;11050;52.222;20.916;2023-04-25T08:14:13;10.10;;;7.77;;
21777;SDS011;11050;52.222;20.916;2023-04-25T08:16:40;8.80;;;7.37;;
21777;SDS011;11050;52.222;20.916;2023-04-25T08:19:05;12.27;;;6.50;;
21777;SDS011;11050;52.222;20.916;2023-04-25T08:21:31;9.33;;;7.07;;
21777;SDS011;11050;52.222;20.916;2023-04-25T08:23:57;8.03;;;7.23;;
21777;SDS011;11050;52.222;20.916;2023-04-25T08:26:24;8.90;;;6.70;;
21777;SDS011;11050;52.222;20.916;2023-04-25T08:28:50;6.03;;;4.87;;
21777;SDS011;11050;52.222;20.916;2023-04-25T08:31:16;8.00;;;7.03;;
21777;SDS011;11050;52.222;20.916;2023-04-25T08:33:42;8.23;;;6.78;;
21777;SDS011;11050;52.222;20.916;2023-04-25T08:36:09;8.30;;;6.93;;
21777;SDS011;11050;52.222;20.916;2023-04-25T08:38:35;9.23;;;7.83;;
21777;SDS011;11050;52.222;20.916;2023-04-25T08:41:01;7.87;;;6.73;;
21777;SDS011;11050;52.222;20.916;2023-04-25T08:43:28;10.40;;;6.97;;
21777;SDS011;11050;52.222;20.916;2023-04-25T08:45:58;6.93;;;6.22;;
21777;SDS011;11050;52.222;20.916;2023-04-25T08:48:26;10.27;;;7.23;;
21777;SDS011;11050;52.222;20.916;2023-04-25T08:50:54;6.73;;;6.03;;
21777;SDS011;11050;52.222;20.916;2023-04-25T08:53:31;6.87;;;6.17;;
21777;SDS011;11050;52.222;20.916;2023-04-25T08:55:59;7.82;;;6.07;;
21777;SDS011;11050;52.222;20.916;2023-04-25T08:58:27;7.43;;;5.80;;
21777;SDS011;11050;52.222;20.916;2023-04-25T09:00:53;7.32;;;5.78;;
21777;SDS011;11050;52.222;20.916;2023-04-25T09:03:20;7.60;;;6.20;;
21777;SDS011;11050;52.222;20.916;2023-04-25T09:05:46;7.77;;;6.87;;
21777;SDS011;11050;52.222;20.916;2023-04-25T09:08:12;8.57;;;7.67;;
21777;SDS011;11050;52.222;20.916;2023-04-25T09:10:38;8.23;;;7.03;;
21777;SDS011;11050;52.222;20.916;2023-04-25T09:13:08;10.00;;;8.25;;
21777;SDS011;11050;52.222;20.916;2023-04-25T09:15:50;11.33;;;9.20;;
21777;SDS011;11050;52.222;20.916;2023-04-25T09:18:27;10.38;;;9.00;;
21777;SDS011;11050;52.222;20.916;2023-04-25T09:21:04;10.70;;;9.10;;
21777;SDS011;11050;52.222;20.916;2023-04-25T09:23:38;11.23;;;8.87;;
21777;SDS011;11050;52.222;20.916;2023-04-25T09:26:10;13.17;;;9.30;;
21777;SDS011;11050;52.222;20.916;2023-04-25T09:28:40;13.03;;;11.57;;
21777;SDS011;11050;52.222;20.916;2023-04-25T09:31:09;12.65;;;11.15;;
21777;SDS011;11050;52.222;20.916;2023-04-25T09:33:36;14.00;;;11.43;;
21777;SDS011;11050;52.222;20.916;2023-04-25T09:36:06;13.70;;;11.75;;
21777;SDS011;11050;52.222;20.916;2023-04-25T09:38:40;14.48;;;12.13;;
21777;SDS011;11050;52.222;20.916;2023-04-25T09:41:09;12.27;;;10.98;;
21777;SDS011;11050;52.222;20.916;2023-04-25T09:43:36;15.03;;;12.37;;
21777;SDS011;11050;52.222;20.916;2023-04-25T09:46:10;16.65;;;13.57;;
21777;SDS011;11050;52.222;20.916;2023-04-25T09:48:36;17.17;;;14.17;;
21777;SDS011;11050;52.222;20.916;2023-04-25T09:53:29;14.93;;;13.07;;
21777;SDS011;11050;52.222;20.916;2023-04-25T09:55:56;16.10;;;14.30;;
21777;SDS011;11050;52.222;20.916;2023-04-25T09:58:25;17.90;;;13.85;;
21777;SDS011;11050;52.222;20.916;2023-04-25T10:00:55;15.68;;;13.18;;
21777;SDS011;11050;52.222;20.916;2023-04-25T10:03:29;14.93;;;11.70;;
21777;SDS011;11050;52.222;20.916;2023-04-25T10:06:02;12.67;;;11.27;;
21777;SDS011;11050;52.222;20.916;2023-04-25T10:08:32;14.23;;;12.00;;
21777;SDS011;11050;52.222;20.916;2023-04-25T10:11:02;13.67;;;12.20;;
21777;SDS011;11050;52.222;20.916;2023-04-25T10:13:33;14.33;;;12.87;;
21777;SDS011;11050;52.222;20.916;2023-04-25T10:16:02;13.75;;;11.82;;
21777;SDS011;11050;52.222;20.916;2023-04-25T10:18:30;15.60;;;11.83;;
21777;SDS011;11050;52.222;20.916;2023-04-25T10:20:58;12.93;;;11.40;;
21777;SDS011;11050;52.222;20.916;2023-04-25T10:23:29;14.17;;;11.60;;
21777;SDS011;11050;52.222;20.916;2023-04-25T10:25:59;13.53;;;10.87;;
21777;SDS011;11050;52.222;20.916;2023-04-25T10:28:25;14.60;;;12.13;;
21777;SDS011;11050;52.222;20.916;2023-04-25T10:31:01;14.23;;;12.68;;
21777;SDS011;11050;52.222;20.916;2023-04-25T10:33:33;13.87;;;12.47;;
21777;SDS011;11050;52.222;20.916;2023-04-25T10:36:20;17.65;;;12.27;;
21777;SDS011;11050;52.222;20.916;2023-04-25T10:38:48;13.80;;;11.60;;
21777;SDS011;11050;52.222;20.916;2023-04-25T10:41:17;13.40;;;12.00;;
21777;SDS011;11050;52.222;20.916;2023-04-25T10:43:48;12.90;;;11.53;;
21777;SDS011;11050;52.222;20.916;2023-04-25T10:46:27;12.33;;;10.47;;
21777;SDS011;11050;52.222;20.916;2023-04-25T10:48:57;12.33;;;10.60;;
21777;SDS011;11050;52.222;20.916;2023-04-25T10:51:29;14.27;;;11.18;;
21777;SDS011;11050;52.222;20.916;2023-04-25T10:54:01;15.60;;;11.10;;
21777;SDS011;11050;52.222;20.916;2023-04-25T10:59:06;13.23;;;11.93;;
21777;SDS011;11050;52.222;20.916;2023-04-25T11:01:45;15.17;;;13.33;;
21777;SDS011;11050;52.222;20.916;2023-04-25T11:04:20;14.23;;;12.83;;
21777;SDS011;11050;52.222;20.916;2023-04-25T11:10:05;15.47;;;13.87;;
21777;SDS011;11050;52.222;20.916;2023-04-25T11:12:31;14.95;;;13.30;;
21777;SDS011;11050;52.222;20.916;2023-04-25T11:14:58;14.53;;;12.67;;
21777;SDS011;11050;52.222;20.916;2023-04-25T11:17:33;14.23;;;12.77;;
21777;SDS011;11050;52.222;20.916;2023-04-25T11:19:59;13.27;;;11.98;;
21777;SDS011;11050;52.222;20.916;2023-04-25T11:22:26;13.18;;;11.88;;
21777;SDS011;11050;52.222;20.916;2023-04-25T11:24:53;14.68;;;12.43;;
21777;SDS011;11050;52.222;20.916;2023-04-25T11:27:19;13.93;;;11.82;;
21777;SDS011;11050;52.222;20.916;2023-04-25T11:29:46;14.18;;;12.77;;
21777;SDS011;11050;52.222;20.916;2023-04-25T11:32:14;12.90;;;11.63;;
21777;SDS011;11050;52.222;20.916;2023-04-25T11:34:42;12.20;;;11.00;;
21777;SDS011;11050;52.222;20.916;2023-04-25T11:37:10;13.65;;;12.35;;
21777;SDS011;11050;52.222;20.916;2023-04-25T11:39:42;12.45;;;11.18;;
21777;SDS011;11050;52.222;20.916;2023-04-25T11:42:11;14.32;;;11.93;;
21777;SDS011;11050;52.222;20.916;2023-04-25T11:44:37;13.32;;;11.93;;
21777;SDS011;11050;52.222;20.916;2023-04-25T11:47:05;11.70;;;10.57;;
21777;SDS011;11050;52.222;20.916;2023-04-25T11:49:31;11.70;;;10.60;;
21777;SDS011;11050;52.222;20.916;2023-04-25T11:51:57;12.13;;;10.93;;
21777;SDS011;11050;52.222;20.916;2023-04-25T11:54:23;12.55;;;10.95;;
21777;SDS011;11050;52.222;20.916;2023-04-25T11:56:48;11.27;;;10.15;;
21777;SDS011;11050;52.222;20.916;2023-04-25T11:59:15;9.98;;;8.98;;
21777;SDS011;11050;52.222;20.916;2023-04-25T12:01:47;11.07;;;10.02;;
21777;SDS011;11050;52.222;20.916;2023-04-25T12:04:15;10.27;;;9.07;;
21777;SDS011;11050;52.222;20.916;2023-04-25T12:06:43;9.75;;;8.85;;
21777;SDS011;11050;52.222;20.916;2023-04-25T12:09:15;9.63;;;8.68;;
21777;SDS011;11050;52.222;20.916;2023-04-25T12:11:52;9.48;;;8.52;;
21777;SDS011;11050;52.222;20.916;2023-04-25T12:14:24;8.40;;;7.65;;
21777;SDS011;11050;52.222;20.916;2023-04-25T12:16:55;7.90;;;7.07;;
21777;SDS011;11050;52.222;20.916;2023-04-25T12:19:23;8.23;;;7.43;;
21777;SDS011;11050;52.222;20.916;2023-04-25T12:21:49;7.93;;;6.95;;
21777;SDS011;11050;52.222;20.916;2023-04-25T12:24:16;7.13;;;6.43;;
21777;SDS011;11050;52.222;20.916;2023-04-25T12:26:53;8.38;;;6.82;;
21777;SDS011;11050;52.222;20.916;2023-04-25T12:29:25;7.60;;;6.78;;
21777;SDS011;11050;52.222;20.916;2023-04-25T12:31:54;7.50;;;6.55;;
21777;SDS011;11050;52.222;20.916;2023-04-25T12:34:21;6.95;;;6.28;;
21777;SDS011;11050;52.222;20.916;2023-04-25T12:36:48;6.20;;;5.38;;
21777;SDS011;11050;52.222;20.916;2023-04-25T12:41:44;7.68;;;5.93;;
21777;SDS011;11050;52.222;20.916;2023-04-25T12:44:11;7.65;;;6.32;;
21777;SDS011;11050;52.222;20.916;2023-04-25T12:46:38;9.32;;;6.15;;
21777;SDS011;11050;52.222;20.916;2023-04-25T12:49:05;6.93;;;6.13;;
21777;SDS011;11050;52.222;20.916;2023-04-25T12:51:33;8.90;;;6.90;;
21777;SDS011;11050;52.222;20.916;2023-04-25T12:54:00;7.32;;;6.63;;
21777;SDS011;11050;52.222;20.916;2023-04-25T12:56:31;7.75;;;6.95;;
21777;SDS011;11050;52.222;20.916;2023-04-25T12:58:58;6.80;;;6.15;;
21777;SDS011;11050;52.222;20.916;2023-04-25T13:01:24;7.15;;;6.45;;
21777;SDS011;11050;52.222;20.916;2023-04-25T13:03:51;6.70;;;6.05;;
21777;SDS011;11050;52.222;20.916;2023-04-25T13:06:18;7.28;;;6.57;;
21777;SDS011;11050;52.222;20.916;2023-04-25T13:08:45;7.45;;;6.75;;
21777;SDS011;11050;52.222;20.916;2023-04-25T13:11:11;9.48;;;6.45;;
21777;SDS011;11050;52.222;20.916;2023-04-25T13:13:39;8.25;;;6.88;;
21777;SDS011;11050;52.222;20.916;2023-04-25T13:16:06;7.72;;;6.93;;
21777;SDS011;11050;52.222;20.916;2023-04-25T13:18:32;6.93;;;6.22;;
21777;SDS011;11050;52.222;20.916;2023-04-25T13:20:59;7.20;;;6.50;;
21777;SDS011;11050;52.222;20.916;2023-04-25T13:23:25;8.13;;;6.97;;
21777;SDS011;11050;52.222;20.916;2023-04-25T13:25:54;7.93;;;6.78;;
21777;SDS011;11050;52.222;20.916;2023-04-25T13:28:22;8.88;;;6.72;;
21777;SDS011;11050;52.222;20.916;2023-04-25T13:30:49;7.40;;;5.88;;
21777;SDS011;11050;52.222;20.916;2023-04-25T13:33:16;6.03;;;5.43;;
21777;SDS011;11050;52.222;20.916;2023-04-25T13:35:44;7.47;;;5.68;;
21777;SDS011;11050;52.222;20.916;2023-04-25T13:38:18;7.55;;;6.43;;
21777;SDS011;11050;52.222;20.916;2023-04-25T13:40:50;6.25;;;5.70;;
21777;SDS011;11050;52.222;20.916;2023-04-25T13:43:19;7.03;;;5.75;;
21777;SDS011;11050;52.222;20.916;2023-04-25T13:45:49;7.57;;;6.03;;
21777;SDS011;11050;52.222;20.916;2023-04-25T13:48:16;6.72;;;5.40;;
21777;SDS011;11050;52.222;20.916;2023-04-25T13:50:43;6.25;;;5.65;;
21777;SDS011;11050;52.222;20.916;2023-04-25T13:53:09;6.78;;;5.25;;
21777;SDS011;11050;52.222;20.916;2023-04-25T13:55:35;9.07;;;6.20;;
21777;SDS011;11050;52.222;20.916;2023-04-25T13:58:02;6.05;;;5.45;;
21777;SDS011;11050;52.222;20.916;2023-04-25T14:00:32;7.30;;;6.20;;
21777;SDS011;11050;52.222;20.916;2023-04-25T14:03:08;7.13;;;6.43;;
21777;SDS011;11050;52.222;20.916;2023-04-25T14:05:37;5.57;;;4.97;;
21777;SDS011;11050;52.222;20.916;2023-04-25T14:08:04;6.65;;;5.35;;
21777;SDS011;11050;52.222;20.916;2023-04-25T14:10:31;6.03;;;5.43;;
21777;SDS011;11050;52.222;20.916;2023-04-25T14:12:57;6.35;;;5.75;;
21777;SDS011;11050;52.222;20.916;2023-04-25T14:15:22;6.32;;;5.70;;
21777;SDS011;11050;52.222;20.916;2023-04-25T14:17:50;5.95;;;5.35;;
21777;SDS011;11050;52.222;20.916;2023-04-25T14:20:16;6.07;;;5.47;;
21777;SDS011;11050;52.222;20.916;2023-04-25T14:22:45;6.35;;;5.50;;
21777;SDS011;11050;52.222;20.916;2023-04-25T14:25:11;6.13;;;5.50;;
21777;SDS011;11050;52.222;20.916;2023-04-25T14:27:37;6.20;;;5.60;;